createdAt,value
2022-11-03T08:58:51.540Z,603.75
2022-11-03T09:04:17.227Z,584.20
2022-11-03T09:11:33.642Z,541.47
2022-11-03T09:14:06.534Z,517.17
2022-11-03T09:16:38.813Z,498.25
2022-11-03T09:19:11.134Z,479.90
2022-11-03T09:21:44.571Z,471.73
2022-11-03T09:24:16.955Z,458.60
2022-11-03T09:26:55.143Z,450.88
2022-11-03T09:29:51.625Z,450.63
2022-11-03T09:32:24.661Z,426.50
2022-11-03T09:34:57.428Z,412.80
2022-11-03T09:37:31.323Z,401.75
2022-11-03T10:04:04.621Z,287.13
2022-11-03T10:17:08.032Z,281.45
2022-11-03T10:19:55.487Z,259.63
2022-11-03T10:26:01.033Z,228.07
2022-11-03T10:29:00.861Z,235.40
2022-11-03T10:33:31.961Z,232.10
2022-11-03T10:36:11.524Z,233.50
2022-11-03T10:38:53.600Z,233.07
2022-11-03T10:41:33.946Z,224.43
2022-11-03T10:44:21.464Z,237.35
2022-11-03T10:47:04.793Z,237.63
2022-11-03T10:49:43.900Z,237.55
2022-11-03T10:52:26.184Z,230.57
2022-11-03T10:55:09.486Z,231.70
2022-11-03T10:58:16.465Z,267.58
2022-11-03T11:00:50.481Z,224.70
2022-11-03T11:03:23.778Z,223.68
2022-11-03T11:05:59.089Z,216.25
2022-11-03T11:08:35.934Z,220.80
2022-11-03T11:11:12.892Z,239.88
2022-11-03T11:13:45.734Z,227.30
2022-11-03T11:16:52.661Z,231.43
2022-11-03T11:19:35.589Z,225.73
2022-11-03T11:22:20.095Z,235.55
2022-11-03T11:25:09.488Z,236.20
2022-11-03T11:28:00.277Z,218.98
2022-11-03T11:31:08.046Z,245.73
2022-11-03T11:33:44.841Z,238.70
2022-11-03T11:36:31.823Z,241.80
2022-11-03T11:39:06.926Z,223.55
2022-11-03T11:42:16.262Z,235.30
2022-11-03T11:45:08.901Z,225.48
2022-11-03T11:47:57.486Z,237.00
2022-11-03T11:50:38.600Z,232.85
2022-11-03T11:53:31.964Z,226.55
2022-11-03T11:56:07.151Z,227.88
2022-11-03T11:58:47.655Z,221.30
2022-11-03T12:01:29.914Z,227.10
2022-11-03T12:04:09.724Z,224.55
2022-11-03T12:09:24.532Z,245.93
2022-11-03T12:12:06.867Z,241.18
2022-11-03T12:14:44.847Z,260.35
2022-11-03T12:17:39.056Z,251.77
2022-11-03T12:20:39.029Z,252.60
2022-11-03T12:23:14.085Z,252.25
2022-11-03T12:25:48.264Z,254.48
2022-11-03T12:28:39.289Z,260.00
2022-11-03T12:31:15.747Z,324.98
2022-11-03T12:33:47.477Z,269.98
2022-11-03T12:36:19.867Z,256.48
2022-11-03T12:38:52.803Z,264.33
2022-11-03T12:41:25.950Z,262.92
2022-11-03T12:44:00.170Z,267.25
2022-11-03T12:46:32.579Z,266.48
2022-11-03T12:49:04.718Z,270.30
2022-11-03T12:51:36.571Z,270.92
2022-11-03T12:54:09.358Z,253.00
2022-11-03T12:56:41.519Z,278.85
2022-11-03T12:59:15.234Z,269.02
2022-11-03T13:01:47.355Z,298.05
2022-11-03T13:04:19.896Z,291.05
2022-11-03T13:06:52.107Z,307.10
2022-11-03T13:09:25.482Z,294.98
2022-11-03T13:12:14.385Z,308.73
2022-11-03T13:14:48.748Z,291.47
2022-11-03T13:17:21.049Z,297.95
2022-11-03T13:19:54.773Z,286.58
2022-11-03T13:22:26.941Z,290.17
2022-11-03T13:24:59.330Z,286.60
2022-11-03T13:27:32.587Z,301.48
2022-11-03T13:30:06.378Z,307.55
2022-11-03T13:32:38.733Z,321.85
2022-11-03T13:35:13.913Z,322.33
2022-11-03T13:37:47.042Z,342.50
2022-11-03T13:43:13.165Z,324.52
2022-11-03T13:45:46.940Z,334.73
2022-11-03T13:51:13.600Z,328.90
2022-11-03T13:59:31.442Z,361.20
2022-11-03T14:05:11.848Z,352.10
2022-11-03T14:07:43.929Z,413.75
2022-11-03T14:10:17.599Z,413.58
2022-11-03T14:12:49.555Z,416.67
2022-11-03T14:15:22.075Z,430.45
2022-11-03T14:17:55.882Z,417.35
2022-11-03T14:23:05.620Z,404.73
2022-11-03T14:25:37.736Z,498.42
2022-11-03T14:28:10.855Z,464.52
2022-11-03T14:30:42.963Z,409.33
2022-11-03T14:33:16.521Z,387.65
2022-11-03T14:35:51.075Z,387.77
2022-11-03T14:38:23.298Z,385.63
2022-11-03T14:41:12.152Z,404.98
2022-11-03T14:43:44.622Z,409.85
2022-11-03T14:46:17.099Z,426.08
2022-11-03T14:48:50.802Z,425.23
2022-11-03T14:51:28.097Z,439.65
2022-11-03T14:54:01.140Z,540.65
2022-11-03T14:56:33.894Z,529.78
2022-11-03T14:59:21.381Z,505.60
2022-11-03T15:01:54.810Z,497.00
2022-11-03T15:04:29.862Z,497.65
2022-11-03T15:07:02.894Z,501.77
2022-11-03T15:09:39.192Z,529.35
2022-11-03T15:12:16.606Z,525.75
2022-11-03T15:14:51.261Z,540.85
2022-11-03T15:17:26.499Z,556.83
2022-11-03T15:20:02.234Z,531.55
2022-11-03T15:25:32.241Z,528.65
2022-11-03T15:28:13.225Z,532.72
2022-11-03T15:30:46.494Z,540.33
2022-11-03T15:33:19.779Z,529.67
2022-11-03T15:35:55.590Z,532.38
2022-11-03T15:38:30.195Z,529.05
2022-11-03T15:41:16.483Z,545.53
2022-11-03T15:43:52.515Z,542.92
2022-11-03T15:46:26.270Z,534.95
2022-11-03T15:48:59.074Z,541.00
2022-11-03T15:51:34.520Z,530.20
2022-11-03T15:54:07.458Z,538.60
2022-11-03T15:56:39.918Z,546.53
2022-11-03T15:59:22.561Z,532.05
2022-11-03T16:02:03.645Z,550.97
2022-11-03T16:04:48.448Z,528.40
2022-11-03T16:07:23.678Z,544.10
2022-11-03T16:09:58.329Z,546.38
2022-11-03T16:12:33.640Z,551.55
2022-11-03T16:15:07.716Z,544.95
2022-11-03T16:17:45.350Z,536.15
2022-11-03T16:20:20.787Z,535.30
2022-11-03T16:22:59.386Z,528.50
2022-11-03T16:25:33.047Z,542.05
2022-11-03T16:28:08.166Z,523.25
2022-11-03T16:30:41.922Z,526.58
2022-11-03T16:33:15.911Z,529.13
2022-11-03T16:35:49.158Z,537.83
2022-11-03T16:38:30.168Z,526.05
2022-11-03T16:43:35.169Z,525.75
2022-11-03T16:46:08.133Z,532.85
2022-11-03T16:48:40.236Z,524.58
2022-11-03T16:51:12.740Z,518.20
2022-11-03T16:53:50.500Z,538.13
2022-11-03T16:56:24.282Z,527.28
2022-11-03T16:58:56.302Z,518.88
2022-11-03T17:01:28.877Z,525.67
2022-11-03T17:04:01.666Z,533.67
2022-11-03T17:06:34.232Z,535.38
2022-11-03T17:09:08.930Z,526.28
2022-11-03T17:11:44.222Z,503.17
2022-11-03T17:14:17.073Z,523.00
2022-11-03T17:16:50.231Z,515.88
2022-11-03T17:19:22.305Z,507.38
2022-11-03T17:21:56.575Z,518.67
2022-11-03T17:24:30.686Z,519.13
2022-11-03T17:27:11.403Z,515.85
2022-11-03T17:29:53.663Z,516.78
2022-11-03T17:32:31.951Z,515.45
2022-11-03T17:35:04.438Z,499.17
2022-11-03T17:37:39.055Z,498.42
2022-11-03T17:40:19.731Z,503.35
2022-11-03T17:42:53.585Z,503.05
2022-11-03T17:45:27.906Z,497.75
2022-11-03T17:48:00.378Z,504.65
2022-11-03T17:50:34.919Z,497.08
2022-11-03T17:53:09.666Z,489.10
2022-11-03T17:55:53.178Z,478.38
2022-11-03T17:58:46.525Z,486.48
2022-11-03T18:01:26.588Z,467.15
2022-11-03T18:06:30.764Z,477.35
2022-11-03T18:09:03.070Z,477.73
2022-11-03T18:11:57.828Z,468.30
2022-11-03T18:14:32.453Z,475.02
2022-11-03T18:17:06.867Z,484.63
2022-11-03T18:19:39.192Z,471.10
2022-11-03T18:22:13.190Z,468.52
2022-11-03T18:24:46.375Z,475.42
2022-11-03T18:27:24.978Z,461.70
2022-11-03T18:29:57.802Z,488.90
2022-11-03T18:32:35.678Z,465.58
2022-11-03T18:35:10.851Z,492.13
2022-11-03T18:37:45.719Z,495.45
2022-11-03T18:40:20.371Z,487.20
2022-11-03T18:42:54.567Z,479.02
2022-11-03T18:45:27.428Z,486.25
2022-11-03T18:47:59.465Z,489.00
2022-11-03T18:50:31.999Z,467.98
2022-11-03T18:53:04.206Z,480.67
2022-11-03T18:55:37.017Z,494.92
2022-11-03T18:58:18.895Z,497.20
2022-11-03T19:00:50.891Z,499.15
2022-11-03T19:03:24.235Z,508.02
2022-11-03T19:05:57.243Z,481.15
2022-11-03T19:08:32.069Z,482.55
2022-11-03T19:11:05.242Z,489.40
2022-11-03T19:13:41.616Z,484.95
2022-11-03T19:16:18.908Z,508.05
2022-11-03T19:18:51.740Z,504.92
2022-11-03T19:21:24.958Z,485.38
2022-11-03T19:23:58.505Z,489.88
2022-11-03T19:26:35.139Z,491.73
2022-11-03T19:29:14.721Z,500.85
2022-11-03T19:31:50.319Z,508.55
2022-11-03T19:34:25.545Z,481.63
2022-11-03T19:36:58.165Z,483.35
2022-11-03T19:39:34.336Z,488.15
2022-11-03T19:42:32.412Z,503.80
2022-11-03T19:45:08.198Z,489.50
2022-11-03T19:47:57.710Z,496.15
2022-11-03T19:50:37.405Z,491.27
2022-11-03T19:53:10.917Z,486.08
2022-11-03T19:55:46.495Z,505.17
2022-11-03T19:58:20.890Z,515.33
2022-11-03T20:00:54.952Z,514.92
2022-11-03T20:03:28.298Z,537.83
2022-11-03T20:06:01.425Z,524.45
2022-11-03T20:08:35.843Z,544.13
2022-11-03T20:11:10.209Z,534.75
2022-11-03T20:13:46.075Z,532.85
2022-11-03T20:16:22.416Z,542.35
2022-11-03T20:18:56.250Z,542.92
2022-11-03T20:21:34.218Z,540.10
2022-11-03T20:24:08.175Z,531.80
2022-11-03T20:26:41.639Z,550.88
2022-11-03T20:29:18.703Z,539.53
2022-11-03T20:31:54.137Z,543.33
2022-11-03T20:34:26.096Z,553.33
2022-11-03T20:37:01.456Z,569.40
2022-11-03T20:39:41.392Z,564.65
2022-11-03T20:42:21.543Z,564.75
2022-11-03T20:44:54.164Z,567.42
2022-11-03T20:47:30.121Z,566.33
2022-11-03T20:50:02.257Z,552.72
2022-11-03T20:52:34.433Z,553.08
2022-11-03T20:55:06.751Z,571.08
2022-11-03T20:57:39.343Z,565.10
2022-11-03T21:00:16.033Z,551.85
2022-11-03T21:02:51.041Z,574.40
2022-11-03T21:05:25.274Z,571.65
2022-11-03T21:07:58.475Z,567.83
2022-11-03T21:10:30.967Z,568.28
2022-11-03T21:13:02.935Z,585.42
2022-11-03T21:16:18.251Z,575.50
2022-11-03T21:19:02.910Z,576.78
2022-11-03T21:21:35.840Z,579.40
2022-11-03T21:24:08.753Z,579.22
2022-11-03T21:26:43.405Z,578.33
2022-11-03T21:29:27.462Z,576.58
2022-11-03T21:32:05.539Z,588.30
2022-11-03T21:34:39.640Z,575.28
2022-11-03T21:37:15.835Z,587.92
2022-11-03T21:39:48.874Z,588.97
2022-11-03T21:42:37.309Z,584.67
2022-11-03T21:45:10.667Z,575.17
2022-11-03T21:48:02.850Z,589.17
2022-11-03T21:50:35.412Z,587.85
2022-11-03T21:53:08.601Z,584.10
2022-11-03T21:55:41.047Z,601.92
2022-11-03T21:58:13.523Z,591.35
2022-11-03T22:00:47.241Z,581.50
2022-11-03T22:03:19.563Z,591.38
2022-11-03T22:05:53.095Z,582.25
2022-11-03T22:08:25.981Z,589.78
2022-11-03T22:11:22.807Z,592.25
2022-11-03T22:13:57.104Z,590.60
2022-11-03T22:16:42.205Z,581.47
2022-11-03T22:19:33.293Z,568.80
2022-11-03T22:22:26.021Z,565.17
2022-11-03T22:25:15.304Z,589.97
2022-11-03T22:27:48.044Z,588.00
2022-11-03T22:30:37.308Z,582.60
2022-11-03T22:33:10.013Z,585.65
2022-11-03T22:35:59.922Z,574.15
2022-11-03T22:38:47.239Z,599.47
2022-11-03T22:41:36.099Z,597.72
2022-11-03T22:44:26.162Z,580.97
2022-11-03T22:49:29.798Z,595.50
2022-11-03T22:52:02.334Z,613.83
2022-11-03T22:54:36.131Z,594.97
2022-11-03T22:57:09.222Z,572.25
2022-11-03T22:59:41.757Z,574.20
2022-11-03T23:02:14.270Z,591.15
2022-11-03T23:04:46.216Z,559.03
2022-11-03T23:07:18.239Z,598.53
2022-11-03T23:09:52.750Z,603.53
2022-11-03T23:12:24.727Z,602.80
2022-11-03T23:15:14.138Z,599.75
2022-11-03T23:18:02.440Z,598.85
2022-11-03T23:20:51.895Z,604.08
2022-11-03T23:23:40.742Z,607.95
2022-11-03T23:26:14.756Z,622.30
2022-11-03T23:28:47.716Z,597.33
2022-11-03T23:31:19.715Z,604.78
2022-11-03T23:33:51.855Z,621.22
2022-11-03T23:36:25.109Z,595.83
2022-11-03T23:38:58.419Z,587.28
2022-11-03T23:41:33.129Z,614.30
2022-11-03T23:44:05.701Z,618.92
2022-11-03T23:46:54.198Z,618.53
2022-11-03T23:49:26.544Z,623.73
2022-11-03T23:51:58.802Z,610.03
2022-11-03T23:54:31.100Z,615.40
2022-11-03T23:57:21.495Z,621.45
2022-11-03T23:59:53.343Z,620.67
